Time;durP1;ratioP1;P1;durP2;ratioP2;P2;SDS_P1;SDS_P2;PMS_P1;PMS_P2;Temp;Humidity;BMP_temperature;BMP_pressure;BME280_temperature;BME280_humidity;BME280_pressure;Samples;Min_cycle;Max_cycle;Signal;HPM_P1;HPM_P2
2022/03/22 00:00:29;;;;;;;39.77;20.77;;;11.80;99.90;;;;;;5073409;28;20219;-67
2022/03/22 00:02:56;;;;;;;39.73;20.90;;;11.80;99.90;;;;;;5073135;28;20164;-66
2022/03/22 00:05:21;;;;;;;43.90;20.70;;;11.70;99.90;;;;;;5071388;28;20218;-68
2022/03/22 00:07:47;;;;;;;35.97;21.03;;;11.50;99.90;;;;;;5073370;28;20188;-67
2022/03/22 00:10:14;;;;;;;29.83;19.50;;;11.50;99.90;;;;;;5073350;28;20568;-67
2022/03/22 00:12:41;;;;;;;31.43;20.77;;;11.50;99.90;;;;;;5073042;28;20210;-67
2022/03/22 00:15:08;;;;;;;34.83;20.70;;;11.50;99.90;;;;;;5073191;28;20618;-66
2022/03/22 00:17:34;;;;;;;37.93;20.97;;;11.50;99.90;;;;;;5071682;28;20242;-66
2022/03/22 00:20:00;;;;;;;38.83;21.33;;;11.50;99.90;;;;;;5072047;28;20169;-67
2022/03/22 00:22:26;;;;;;;31.07;20.37;;;11.50;99.90;;;;;;5072968;28;20168;-67
2022/03/22 00:24:52;;;;;;;37.67;20.73;;;11.40;99.90;;;;;;5073092;28;20230;-66
2022/03/22 00:27:18;;;;;;;30.70;20.70;;;11.30;99.90;;;;;;5072959;28;20169;-66
2022/03/22 00:29:44;;;;;;;30.63;21.33;;;11.20;99.90;;;;;;5073035;28;20259;-67
2022/03/22 00:32:10;;;;;;;33.33;20.77;;;11.10;99.90;;;;;;5072875;28;20325;-67
2022/03/22 00:34:44;;;;;;;34.13;20.40;;;11.10;99.90;;;;;;5072605;28;20639;-66
2022/03/22 00:37:14;;;;;;;33.60;20.80;;;11.10;99.90;;;;;;5073155;28;20204;-67
2022/03/22 00:39:41;;;;;;;33.23;21.00;;;11.10;99.90;;;;;;5072979;28;20218;-67
2022/03/22 00:42:07;;;;;;;35.17;20.30;;;11.00;99.90;;;;;;5072738;28;20306;-66
2022/03/22 00:44:34;;;;;;;34.13;21.03;;;11.00;99.90;;;;;;5072774;28;20769;-66
2022/03/22 00:46:59;;;;;;;37.90;20.30;;;11.00;99.90;;;;;;5071137;28;20187;-66
2022/03/22 00:49:25;;;;;;;31.60;20.20;;;11.00;99.90;;;;;;5072485;28;20538;-65
2022/03/22 00:51:51;;;;;;;31.77;20.73;;;11.00;99.90;;;;;;5072848;28;20202;-67
2022/03/22 00:54:16;;;;;;;44.53;21.37;;;10.90;99.90;;;;;;5072457;28;20216;-66
2022/03/22 00:56:42;;;;;;;35.53;20.87;;;10.90;99.90;;;;;;5072722;28;20212;-67
2022/03/22 01:01:51;;;;;;;29.53;20.20;;;10.90;99.90;;;;;;5072344;28;20187;-67
2022/03/22 01:04:17;;;;;;;39.23;20.63;;;11.00;99.90;;;;;;5072720;28;20173;-67
2022/03/22 01:06:44;;;;;;;31.43;20.77;;;10.90;99.90;;;;;;5072690;28;20314;-66
2022/03/22 01:09:10;;;;;;;37.47;20.53;;;10.90;99.90;;;;;;5072603;28;20165;-67
2022/03/22 01:11:36;;;;;;;35.97;20.60;;;10.90;99.90;;;;;;5072550;28;20182;-67
2022/03/22 01:14:02;;;;;;;37.43;20.60;;;10.90;99.90;;;;;;5072317;28;20183;-67
2022/03/22 01:16:27;;;;;;;31.67;20.77;;;10.90;99.90;;;;;;5070877;28;20212;-67
2022/03/22 01:18:53;;;;;;;32.13;20.30;;;10.90;99.90;;;;;;5072585;28;20573;-66
2022/03/22 01:21:19;;;;;;;33.83;21.20;;;10.80;99.90;;;;;;5072269;28;20200;-66
2022/03/22 01:23:45;;;;;;;32.07;20.07;;;10.80;99.90;;;;;;5072316;28;20164;-67
2022/03/22 01:26:11;;;;;;;32.43;20.87;;;10.80;99.90;;;;;;5072548;28;20306;-67
2022/03/22 01:28:36;;;;;;;37.90;23.10;;;10.70;99.90;;;;;;5072070;28;20176;-67
2022/03/22 01:31:02;;;;;;;28.70;21.10;;;10.60;99.90;;;;;;5071928;28;20172;-67
2022/03/22 01:33:27;;;;;;;32.87;21.83;;;10.60;99.90;;;;;;5075759;28;20684;-68
2022/03/22 01:35:53;;;;;;;30.27;22.20;;;10.60;99.90;;;;;;5075904;28;20318;-66
2022/03/22 01:38:19;;;;;;;31.83;20.87;;;10.50;99.90;;;;;;5075916;28;20177;-66
2022/03/22 01:40:45;;;;;;;32.40;21.17;;;10.50;99.90;;;;;;5075616;28;20212;-66
2022/03/22 01:43:11;;;;;;;29.70;20.13;;;10.30;99.90;;;;;;5075418;28;20173;-67
2022/03/22 01:45:37;;;;;;;29.97;21.50;;;10.20;99.90;;;;;;5075268;28;20247;-66
2022/03/22 01:48:04;;;;;;;31.17;20.93;;;10.10;99.90;;;;;;5075746;28;20271;-67
2022/03/22 01:50:30;;;;;;;33.73;20.43;;;10.00;99.90;;;;;;5075677;28;20247;-67
2022/03/22 01:52:58;;;;;;;35.90;21.57;;;9.80;99.90;;;;;;5075496;28;20208;-66
2022/03/22 01:55:25;;;;;;;31.40;20.63;;;9.80;99.90;;;;;;5075262;28;20232;-65
2022/03/22 01:57:50;;;;;;;33.53;21.60;;;9.80;99.90;;;;;;5075230;28;20299;-67
2022/03/22 02:00:19;;;;;;;36.17;21.40;;;9.80;99.90;;;;;;5075253;28;20203;-67
2022/03/22 02:05:55;;;;;;;42.50;23.47;;;9.80;99.90;;;;;;5075594;28;20608;-67
2022/03/22 02:08:24;;;;;;;36.60;21.40;;;9.80;99.90;;;;;;5075319;28;20164;-66
2022/03/22 02:10:50;;;;;;;29.70;18.30;;;9.90;99.90;;;;;;5075231;28;20157;-68
2022/03/22 02:13:16;;;;;;;35.50;19.17;;;10.00;99.90;;;;;;5057143;28;20179;-67
2022/03/22 02:15:44;;;;;;;38.63;22.43;;;10.10;99.90;;;;;;5074751;28;20255;-67
2022/03/22 02:18:10;;;;;;;33.97;19.23;;;10.10;99.90;;;;;;5075201;28;20200;-66
2022/03/22 02:20:36;;;;;;;25.30;14.97;;;10.10;99.90;;;;;;5074931;28;20573;-67
2022/03/22 02:23:16;;;;;;;15.30;11.87;;;10.10;99.90;;;;;;5075089;28;20266;-66
2022/03/22 02:25:42;;;;;;;17.67;13.07;;;10.30;99.90;;;;;;5073787;28;20168;-66
2022/03/22 02:28:08;;;;;;;29.57;15.50;;;10.60;99.90;;;;;;5074906;28;20612;-66
2022/03/22 02:30:33;;;;;;;20.27;12.80;;;10.70;99.90;;;;;;5074566;28;20180;-66
2022/03/22 02:33:01;;;;;;;19.70;13.10;;;10.80;99.90;;;;;;5074907;28;20171;-66
2022/03/22 02:35:28;;;;;;;18.30;13.70;;;10.90;99.90;;;;;;5075168;28;20273;-66
2022/03/22 02:37:55;;;;;;;18.60;13.20;;;11.10;99.90;;;;;;5074997;28;20220;-66
2022/03/22 02:40:21;;;;;;;20.63;14.93;;;11.10;99.90;;;;;;5074840;28;20165;-67
2022/03/22 02:42:54;;;;;;;26.00;16.63;;;11.20;99.90;;;;;;5074093;28;20568;-67
2022/03/22 02:45:21;;;;;;;28.00;16.57;;;11.20;99.90;;;;;;5074267;28;20628;-68
2022/03/22 02:47:47;;;;;;;24.80;16.27;;;11.10;99.90;;;;;;5074753;28;20180;-67
2022/03/22 02:50:13;;;;;;;25.23;16.53;;;11.10;99.90;;;;;;5074678;28;20527;-67
2022/03/22 02:52:40;;;;;;;25.50;17.30;;;10.90;99.90;;;;;;5074269;28;20180;-66
2022/03/22 02:55:07;;;;;;;27.73;17.40;;;10.80;99.90;;;;;;5074355;28;20303;-66
2022/03/22 02:57:34;;;;;;;32.17;19.50;;;10.70;99.90;;;;;;5074067;28;20217;-67
2022/03/22 03:00:01;;;;;;;28.57;18.80;;;10.60;99.90;;;;;;5072677;28;20212;-67
2022/03/22 03:02:27;;;;;;;26.53;18.80;;;10.40;99.90;;;;;;5074223;28;20223;-66
2022/03/22 03:04:52;;;;;;;27.73;17.93;;;10.30;99.90;;;;;;5074221;28;20172;-67
2022/03/22 03:07:18;;;;;;;27.87;17.93;;;10.20;99.90;;;;;;5074429;28;20640;-66
2022/03/22 03:09:43;;;;;;;26.20;17.43;;;10.20;99.90;;;;;;5073983;28;20623;-66
2022/03/22 03:12:09;;;;;;;25.43;18.13;;;10.20;99.90;;;;;;5073973;28;20198;-66
2022/03/22 03:14:41;;;;;;;25.10;18.57;;;10.30;99.90;;;;;;5073793;28;20219;-66
2022/03/22 03:17:11;;;;;;;29.83;18.03;;;10.30;99.90;;;;;;5074087;28;20204;-67
2022/03/22 03:19:37;;;;;;;30.80;18.60;;;10.30;99.90;;;;;;5073882;28;20242;-66
2022/03/22 03:22:03;;;;;;;28.77;18.87;;;10.20;99.90;;;;;;5073817;28;20169;-66
2022/03/22 03:24:30;;;;;;;27.60;18.97;;;10.10;99.90;;;;;;5072320;28;20628;-66
2022/03/22 03:26:56;;;;;;;30.13;19.57;;;9.90;99.90;;;;;;5073554;28;20631;-66
2022/03/22 03:29:22;;;;;;;27.70;19.03;;;9.70;99.90;;;;;;5073770;28;20172;-66
2022/03/22 03:31:48;;;;;;;27.37;19.10;;;9.70;99.90;;;;;;5073550;28;20173;-66
2022/03/22 03:34:14;;;;;;;32.13;19.40;;;9.70;99.90;;;;;;5073541;28;20259;-65
2022/03/22 03:36:40;;;;;;;26.87;18.87;;;9.60;99.90;;;;;;5072331;28;20208;-66
2022/03/22 03:39:05;;;;;;;29.03;19.23;;;9.60;99.90;;;;;;5073513;28;20168;-66
2022/03/22 03:47:10;;;;;;;24.97;18.83;;;9.60;99.90;;;;;;5073690;28;20247;-66
2022/03/22 03:49:39;;;;;;;31.20;19.67;;;9.60;99.90;;;;;;5073608;28;20229;-66
2022/03/22 03:52:07;;;;;;;26.60;18.77;;;9.60;99.90;;;;;;5073310;28;20184;-66
2022/03/22 03:54:34;;;;;;;26.17;18.90;;;9.70;99.90;;;;;;5070706;28;20225;-65
2022/03/22 03:57:00;;;;;;;26.13;19.07;;;9.60;99.90;;;;;;5072881;28;20200;-66
2022/03/22 03:59:26;;;;;;;33.00;19.90;;;9.60;99.90;;;;;;5073023;28;20184;-66
2022/03/22 04:01:51;;;;;;;28.20;19.53;;;9.50;99.90;;;;;;5073262;28;20191;-66
2022/03/22 04:04:17;;;;;;;30.70;20.50;;;9.50;99.90;;;;;;5073439;28;20540;-66
2022/03/22 04:06:43;;;;;;;30.20;19.43;;;9.40;99.90;;;;;;5073450;28;20670;-66
2022/03/22 04:09:08;;;;;;;30.10;19.73;;;9.20;99.90;;;;;;5073069;28;20248;-67
2022/03/22 04:11:34;;;;;;;31.40;19.27;;;9.20;99.90;;;;;;5071422;28;20263;-67
2022/03/22 04:14:00;;;;;;;27.43;19.83;;;9.20;99.90;;;;;;5073240;28;20175;-67
2022/03/22 04:16:25;;;;;;;28.50;19.50;;;9.30;99.90;;;;;;5071674;28;20196;-67
2022/03/22 04:18:51;;;;;;;37.13;20.67;;;9.30;99.90;;;;;;5073099;28;20472;-67
2022/03/22 04:21:16;;;;;;;30.57;19.30;;;9.40;99.90;;;;;;5072874;28;20168;-69
2022/03/22 04:23:42;;;;;;;32.53;19.63;;;9.40;99.90;;;;;;5072753;28;20168;-67
2022/03/22 04:26:08;;;;;;;31.73;19.30;;;9.40;99.90;;;;;;5072325;28;20222;-67
2022/03/22 04:34:02;;;;;;;30.40;19.70;;;9.40;99.90;;;;;;5072777;28;20175;-66
2022/03/22 04:36:29;;;;;;;30.40;20.27;;;9.40;99.90;;;;;;5072639;28;20231;-66
2022/03/22 04:38:55;;;;;;;33.93;21.07;;;9.30;99.90;;;;;;5072919;28;20199;-68
2022/03/22 04:41:20;;;;;;;32.13;20.37;;;9.30;99.90;;;;;;5072101;28;20165;-67
2022/03/22 04:43:46;;;;;;;31.23;21.20;;;9.20;99.90;;;;;;5072798;28;20528;-65
2022/03/22 04:46:17;;;;;;;28.07;18.97;;;9.20;99.90;;;;;;5072495;28;20524;-67
2022/03/22 04:48:47;;;;;;;25.13;19.67;;;9.10;99.90;;;;;;5072939;28;20173;-67
2022/03/22 04:59:11;;;;;;;31.07;19.40;;;8.90;99.90;;;;;;5072507;28;20283;-66
2022/03/22 05:01:36;;;;;;;30.30;19.33;;;9.00;99.90;;;;;;5072512;28;20211;-67
2022/03/22 05:04:02;;;;;;;29.20;19.80;;;9.00;99.90;;;;;;5072053;28;20173;-68
2022/03/22 05:06:28;;;;;;;28.93;19.90;;;9.10;99.90;;;;;;5074447;28;20624;-67
2022/03/22 05:08:54;;;;;;;27.80;18.77;;;9.00;99.90;;;;;;5075844;28;20176;-67
2022/03/22 05:11:23;;;;;;;29.33;18.67;;;9.10;99.90;;;;;;5075821;28;20164;-67
2022/03/22 05:13:49;;;;;;;30.00;18.57;;;9.10;99.90;;;;;;5075695;28;20172;-66
2022/03/22 05:16:15;;;;;;;28.30;18.67;;;9.10;99.90;;;;;;5075542;28;20175;-66
2022/03/22 05:18:41;;;;;;;27.90;18.07;;;9.00;99.90;;;;;;5076010;28;20612;-67
2022/03/22 05:21:07;;;;;;;26.37;18.70;;;9.00;99.90;;;;;;5075776;28;20206;-66
2022/03/22 05:23:34;;;;;;;29.07;19.33;;;9.00;99.90;;;;;;5075143;28;20619;-66
2022/03/22 05:25:59;;;;;;;31.57;19.37;;;9.10;99.90;;;;;;5075738;28;20259;-66
2022/03/22 05:28:25;;;;;;;31.37;18.50;;;9.00;99.90;;;;;;5074005;28;20330;-67
2022/03/22 05:30:51;;;;;;;25.43;18.93;;;9.10;99.90;;;;;;5075431;28;20184;-67
2022/03/22 05:33:16;;;;;;;26.60;18.73;;;9.10;99.90;;;;;;5075620;28;20172;-66
2022/03/22 05:35:42;;;;;;;34.30;20.30;;;9.10;99.90;;;;;;5075571;28;20168;-68
2022/03/22 05:38:08;;;;;;;26.57;19.30;;;9.10;99.90;;;;;;5074941;28;20223;-68
2022/03/22 05:40:33;;;;;;;32.23;19.93;;;9.20;99.90;;;;;;5075017;28;20573;-67
2022/03/22 05:42:59;;;;;;;28.83;19.70;;;9.20;99.90;;;;;;5075143;28;20172;-67
2022/03/22 05:45:26;;;;;;;29.70;19.90;;;9.10;99.90;;;;;;5073806;28;20169;-67
2022/03/22 05:47:53;;;;;;;53.60;21.93;;;9.10;99.90;;;;;;5073664;28;20200;-67
2022/03/22 05:50:19;;;;;;;42.00;20.83;;;9.10;99.90;;;;;;5075062;28;20197;-67
2022/03/22 05:52:47;;;;;;;35.03;18.97;;;9.10;99.90;;;;;;5072758;28;20204;-66
2022/03/22 05:55:13;;;;;;;28.67;18.97;;;9.10;99.90;;;;;;5073021;28;20228;-66
2022/03/22 05:57:39;;;;;;;30.87;19.43;;;9.30;99.90;;;;;;5075385;28;20266;-67
2022/03/22 06:00:06;;;;;;;35.13;19.67;;;9.30;99.90;;;;;;5074622;28;20188;-67
2022/03/22 06:02:37;;;;;;;38.33;20.63;;;9.50;99.90;;;;;;5074729;28;20181;-68
2022/03/22 06:05:04;;;;;;;37.00;20.03;;;9.70;99.90;;;;;;5074559;28;20183;-67
2022/03/22 06:07:29;;;;;;;39.40;21.17;;;10.00;99.90;;;;;;5074343;28;20275;-67
2022/03/22 06:09:55;;;;;;;32.57;19.40;;;10.10;99.90;;;;;;5074065;28;20169;-67
2022/03/22 06:12:20;;;;;;;40.87;18.67;;;10.10;99.90;;;;;;5074701;28;20175;-68
2022/03/22 06:14:46;;;;;;;30.30;18.37;;;10.20;99.90;;;;;;5074949;28;20207;-67
2022/03/22 06:17:11;;;;;;;39.33;19.00;;;10.20;99.90;;;;;;5073394;28;20295;-67
2022/03/22 06:19:37;;;;;;;35.90;18.93;;;10.30;99.90;;;;;;5074058;28;20294;-67
2022/03/22 06:22:03;;;;;;;31.80;18.87;;;10.40;99.90;;;;;;5073042;28;20169;-67
2022/03/22 06:24:29;;;;;;;25.20;17.13;;;10.30;99.90;;;;;;5073949;28;20169;-68
2022/03/22 06:26:54;;;;;;;32.33;18.63;;;10.40;99.90;;;;;;5074510;28;20173;-67
2022/03/22 06:29:20;;;;;;;40.30;18.57;;;10.60;99.90;;;;;;5073276;28;20172;-68
2022/03/22 06:31:45;;;;;;;39.00;17.53;;;10.90;99.90;;;;;;5073548;28;20650;-68
2022/03/22 06:34:11;;;;;;;29.13;16.97;;;11.10;99.90;;;;;;5072638;28;20165;-68
2022/03/22 06:36:36;;;;;;;40.53;18.57;;;11.20;99.90;;;;;;5071932;28;20636;-67
2022/03/22 06:39:08;;;;;;;41.17;19.20;;;11.60;99.90;;;;;;5073892;28;20670;-67
2022/03/22 06:41:34;;;;;;;31.47;18.73;;;12.00;99.90;;;;;;5072525;28;20632;-68
2022/03/22 06:43:59;;;;;;;38.40;20.00;;;12.30;99.90;;;;;;5073299;28;20191;-67
2022/03/22 06:46:26;;;;;;;41.07;19.40;;;12.50;99.90;;;;;;5073563;28;20172;-68
2022/03/22 06:48:52;;;;;;;44.40;19.50;;;12.70;99.90;;;;;;5072834;28;20165;-67
2022/03/22 06:51:19;;;;;;;44.70;20.77;;;13.00;99.90;;;;;;5072401;28;20196;-67
2022/03/22 06:53:45;;;;;;;49.40;19.40;;;13.60;99.90;;;;;;5070894;28;20198;-68
2022/03/22 06:56:10;;;;;;;46.83;19.90;;;14.20;99.90;;;;;;5073004;28;20221;-67
2022/03/22 06:58:36;;;;;;;41.93;18.50;;;15.00;99.60;;;;;;5073352;28;20203;-69
2022/03/22 07:01:01;;;;;;;35.93;19.13;;;15.50;97.30;;;;;;5073326;28;20688;-68
2022/03/22 07:03:27;;;;;;;38.53;18.80;;;15.90;96.30;;;;;;5072562;28;20176;-68
2022/03/22 07:05:53;;;;;;;39.73;19.23;;;16.50;94.90;;;;;;5070911;28;20521;-67
2022/03/22 07:08:19;;;;;;;41.47;20.37;;;16.80;93.40;;;;;;5073424;28;20168;-67
2022/03/22 07:11:47;;;;;;;40.77;20.50;;;17.60;92.50;;;;;;5072603;28;20623;-68
2022/03/22 07:13:32;;;;;;;43.03;20.03;;;18.50;90.30;;;;;;5072519;28;20179;-68
2022/03/22 07:15:58;;;;;;;51.28;20.63;;;19.20;84.30;;;;;;5071832;28;20172;-67
2022/03/22 07:18:23;;;;;;;39.97;19.80;;;19.20;83.90;;;;;;5072293;28;20222;-68
2022/03/22 07:20:49;;;;;;;41.50;20.10;;;20.20;82.20;;;;;;5069904;28;20177;-68
2022/03/22 07:23:15;;;;;;;33.00;19.63;;;21.40;77.40;;;;;;5072500;28;20172;-70
2022/03/22 07:25:40;;;;;;;37.42;19.98;;;22.40;72.30;;;;;;5070999;28;20161;-69
2022/03/22 07:28:06;;;;;;;41.45;20.70;;;22.70;69.00;;;;;;5072530;28;20169;-69
2022/03/22 07:30:32;;;;;;;41.63;20.73;;;23.10;66.10;;;;;;5071722;28;20197;-69
2022/03/22 07:32:58;;;;;;;40.42;21.17;;;23.60;64.20;;;;;;5071715;28;20204;-69
2022/03/22 07:35:24;;;;;;;36.08;21.73;;;23.90;62.20;;;;;;5072160;28;20181;-69
2022/03/22 07:37:50;;;;;;;35.88;21.58;;;24.30;59.70;;;;;;5071843;28;20257;-69
2022/03/22 07:40:16;;;;;;;60.35;22.60;;;24.70;58.40;;;;;;5061815;28;20185;-70
2022/03/22 07:42:42;;;;;;;52.88;23.63;;;24.90;57.00;;;;;;5061026;28;20175;-70
2022/03/22 07:45:09;;;;;;;62.67;23.23;;;25.50;55.80;;;;;;5063241;28;20177;-71
2022/03/22 07:47:36;;;;;;;55.88;22.48;;;25.80;54.50;;;;;;5051388;28;20617;-71
2022/03/22 07:53:05;;;;;;;59.67;23.85;;;26.50;52.10;;;;;;5051958;28;20640;-71
2022/03/22 07:55:34;;;;;;;55.78;22.67;;;26.70;50.40;;;;;;5050768;28;20216;-69
2022/03/22 07:58:00;;;;;;;51.85;22.35;;;27.30;48.70;;;;;;5051190;28;20213;-70
2022/03/22 08:00:30;;;;;;;55.05;22.23;;;27.60;47.00;;;;;;5050283;28;20368;-72
2022/03/22 08:03:03;;;;;;;61.38;22.15;;;27.60;45.80;;;;;;5051502;28;20168;-71
2022/03/22 08:05:31;;;;;;;59.13;22.27;;;28.10;45.00;;;;;;5070954;28;20188;-70
2022/03/22 08:07:56;;;;;;;65.28;23.98;;;28.30;43.50;;;;;;5072102;28;20487;-70
2022/03/22 08:10:23;;;;;;;56.47;23.17;;;28.70;42.30;;;;;;5072167;28;20165;-70
2022/03/22 08:12:49;;;;;;;65.03;23.05;;;28.80;41.40;;;;;;5070496;28;20196;-71
2022/03/22 08:15:15;;;;;;;46.67;22.67;;;28.80;40.40;;;;;;5071383;28;20203;-69
2022/03/22 08:17:42;;;;;;;59.92;24.00;;;29.00;39.50;;;;;;5070962;28;20208;-69
2022/03/22 08:20:10;;;;;;;40.97;21.92;;;29.00;39.00;;;;;;5071449;28;20176;-70
2022/03/22 08:22:52;;;;;;;45.42;22.17;;;28.80;38.90;;;;;;5072053;28;20180;-70
2022/03/22 08:25:28;;;;;;;50.78;23.02;;;29.00;38.40;;;;;;5071799;28;20172;-70
2022/03/22 08:27:54;;;;;;;50.88;22.60;;;29.20;37.40;;;;;;5072052;28;20172;-72
2022/03/22 08:30:21;;;;;;;48.78;22.48;;;29.20;37.20;;;;;;5072097;28;20197;-70
2022/03/22 08:32:51;;;;;;;46.38;22.85;;;29.30;36.20;;;;;;5071327;28;20200;-70
2022/03/22 08:35:21;;;;;;;37.97;22.73;;;29.30;35.60;;;;;;5071663;28;20168;-70
2022/03/22 08:37:47;;;;;;;40.70;22.50;;;29.80;34.70;;;;;;5071863;28;20204;-70
2022/03/22 08:40:15;;;;;;;38.08;22.83;;;29.70;34.20;;;;;;5071844;28;20165;-70
2022/03/22 08:42:45;;;;;;;48.30;22.70;;;29.40;34.20;;;;;;5075619;28;20179;-70
2022/03/22 08:45:12;;;;;;;34.33;22.48;;;28.90;34.30;;;;;;5075621;28;20231;-70
2022/03/22 08:47:40;;;;;;;49.78;24.95;;;29.10;34.20;;;;;;5075412;28;20192;-69
2022/03/22 08:50:10;;;;;;;42.08;24.48;;;29.20;33.70;;;;;;5075541;28;20655;-70
2022/03/22 08:52:37;;;;;;;40.03;23.67;;;29.40;33.40;;;;;;5074923;28;20169;-70
2022/03/22 08:55:04;;;;;;;40.80;24.65;;;29.20;33.40;;;;;;5075244;28;20703;-70
2022/03/22 08:57:30;;;;;;;31.73;23.17;;;29.20;32.90;;;;;;5075270;28;20303;-70
2022/03/22 08:59:55;;;;;;;39.78;23.60;;;29.50;32.40;;;;;;5074387;28;20621;-70
2022/03/22 09:02:21;;;;;;;37.97;21.98;;;29.60;32.50;;;;;;5075177;28;20183;-70
2022/03/22 09:07:30;;;;;;;33.65;21.88;;;29.70;31.20;;;;;;5074628;28;20180;-69
2022/03/22 09:09:56;;;;;;;35.78;23.88;;;30.30;30.70;;;;;;5075248;28;20169;-71
2022/03/22 09:12:21;;;;;;;38.80;22.65;;;30.70;30.20;;;;;;5074751;28;20164;-72
2022/03/22 09:14:47;;;;;;;36.95;22.23;;;30.70;29.80;;;;;;5075294;28;20264;-69
2022/03/22 09:17:13;;;;;;;38.75;23.40;;;31.00;29.50;;;;;;5075296;28;20200;-70
2022/03/22 09:19:39;;;;;;;55.03;26.02;;;31.00;29.10;;;;;;5075733;28;20558;-69
2022/03/22 09:22:05;;;;;;;43.85;24.13;;;30.90;29.50;;;;;;5075058;28;20172;-71
2022/03/22 09:24:35;;;;;;;40.15;23.65;;;30.40;29.20;;;;;;5075426;28;20169;-72
2022/03/22 09:27:01;;;;;;;43.05;23.65;;;30.50;29.30;;;;;;5074898;28;20274;-70
2022/03/22 09:29:27;;;;;;;17.67;13.88;;;30.60;29.20;;;;;;5074606;28;20527;-69
2022/03/22 09:31:53;;;;;;;18.10;13.48;;;30.60;27.10;;;;;;5075059;28;20259;-70
2022/03/22 09:34:19;;;;;;;22.02;14.38;;;30.20;26.90;;;;;;5075133;28;20169;-71
2022/03/22 09:36:44;;;;;;;17.00;13.93;;;30.60;26.50;;;;;;5075223;28;20210;-69
2022/03/22 09:39:10;;;;;;;19.48;14.13;;;30.80;26.30;;;;;;5074617;28;20636;-70
2022/03/22 09:41:37;;;;;;;18.73;14.25;;;31.00;26.20;;;;;;5073615;28;20547;-70
2022/03/22 09:44:04;;;;;;;18.90;14.68;;;31.40;25.90;;;;;;5073969;28;20188;-71
2022/03/22 09:46:32;;;;;;;22.15;16.33;;;31.70;25.50;;;;;;5074875;28;20222;-71
2022/03/22 09:48:58;;;;;;;18.42;15.82;;;31.10;25.70;;;;;;5075023;28;20165;-70
2022/03/22 09:54:09;;;;;;;25.80;15.88;;;31.30;25.30;;;;;;5074165;28;20281;-70
2022/03/22 09:56:35;;;;;;;28.38;17.13;;;31.60;25.90;;;;;;5074606;28;20640;-70
2022/03/22 09:59:03;;;;;;;24.25;16.63;;;31.80;25.60;;;;;;5072581;28;20193;-71
2022/03/22 10:01:30;;;;;;;21.75;16.58;;;31.90;25.20;;;;;;5074346;28;20173;-69
2022/03/22 10:04:05;;;;;;;23.33;15.15;;;31.50;25.20;;;;;;5073794;28;20658;-69
2022/03/22 10:06:32;;;;;;;20.45;15.98;;;31.70;24.80;;;;;;5074023;28;20180;-70
2022/03/22 10:08:58;;;;;;;24.88;16.23;;;31.40;25.00;;;;;;5074689;28;20169;-69
2022/03/22 10:11:38;;;;;;;17.63;15.73;;;31.30;25.00;;;;;;5074092;28;20259;-70
2022/03/22 10:14:08;;;;;;;24.27;16.17;;;31.70;24.80;;;;;;5072579;28;20620;-69
2022/03/22 10:16:48;;;;;;;26.85;17.30;;;31.50;24.90;;;;;;5074681;28;20227;-68
2022/03/22 10:19:41;;;;;;;21.90;17.05;;;30.50;24.90;;;;;;5074387;28;20187;-69
2022/03/22 10:22:10;;;;;;;21.90;16.73;;;28.30;27.30;;;;;;5072861;28;20181;-70
2022/03/22 10:24:50;;;;;;;22.45;16.38;;;28.30;27.20;;;;;;5074112;28;20175;-70
2022/03/22 10:27:34;;;;;;;22.35;16.50;;;27.60;27.90;;;;;;5072450;28;20169;-70
2022/03/22 10:30:04;;;;;;;23.85;16.13;;;28.70;27.20;;;;;;5073014;28;20180;-69
2022/03/22 10:32:39;;;;;;;20.45;15.57;;;30.00;26.10;;;;;;5073192;28;20177;-70
2022/03/22 10:35:16;;;;;;;22.77;14.88;;;30.30;25.30;;;;;;5072529;28;20184;-69
2022/03/22 10:37:45;;;;;;;18.98;14.73;;;29.40;25.30;;;;;;5074314;28;20216;-71
2022/03/22 10:40:32;;;;;;;19.08;14.35;;;29.40;25.80;;;;;;5073885;28;20165;-70
2022/03/22 10:43:01;;;;;;;19.20;13.63;;;28.90;25.70;;;;;;5071622;28;20176;-71
2022/03/22 10:45:28;;;;;;;22.08;13.77;;;28.50;25.50;;;;;;5072491;28;20173;-70
2022/03/22 10:47:58;;;;;;;20.33;14.15;;;28.40;25.70;;;;;;5074132;28;20177;-70
2022/03/22 10:50:24;;;;;;;19.00;14.02;;;28.90;25.70;;;;;;5074142;28;20264;-71
2022/03/22 10:52:57;;;;;;;17.77;13.75;;;28.40;25.40;;;;;;5073046;28;20161;-69
2022/03/22 10:55:27;;;;;;;14.73;12.95;;;29.00;25.50;;;;;;5073435;28;20184;-71
2022/03/22 10:57:56;;;;;;;17.75;13.52;;;29.50;25.20;;;;;;5072925;28;20212;-69
2022/03/22 11:00:22;;;;;;;17.05;13.38;;;28.10;26.00;;;;;;5074043;28;20647;-69
2022/03/22 11:02:53;;;;;;;19.42;14.75;;;27.80;26.80;;;;;;5073142;28;20195;-69
2022/03/22 11:05:21;;;;;;;21.00;14.07;;;27.90;26.40;;;;;;5073416;28;20173;-72
2022/03/22 11:07:52;;;;;;;17.80;13.60;;;28.40;26.60;;;;;;5073802;28;20180;-68
2022/03/22 11:10:29;;;;;;;23.30;13.85;;;27.10;26.30;;;;;;5073358;28;20248;-71
2022/03/22 11:12:55;;;;;;;19.90;14.05;;;26.80;27.50;;;;;;5072912;28;20168;-70
2022/03/22 11:15:21;;;;;;;17.88;13.55;;;28.00;26.70;;;;;;5073464;28;20184;-70
2022/03/22 11:17:49;;;;;;;15.93;13.25;;;27.10;26.60;;;;;;5072186;28;20258;-68
2022/03/22 11:20:16;;;;;;;17.67;12.00;;;26.80;27.20;;;;;;5072350;28;20192;-68
2022/03/22 11:22:50;;;;;;;16.42;11.25;;;27.70;26.70;;;;;;5072469;28;20191;-69
2022/03/22 11:25:19;;;;;;;14.52;12.18;;;27.00;27.30;;;;;;5071328;28;20178;-70
2022/03/22 11:27:57;;;;;;;18.23;12.57;;;27.30;27.70;;;;;;5070914;28;20173;-69
2022/03/22 11:30:23;;;;;;;16.08;12.63;;;27.70;27.00;;;;;;5072276;28;20191;-69
2022/03/22 11:35:56;;;;;;;17.50;12.98;;;27.50;27.40;;;;;;5063547;28;20196;-67
2022/03/22 11:38:55;;;;;;;15.30;13.00;;;28.30;27.10;;;;;;5052699;28;20204;-67
2022/03/22 11:44:24;;;;;;;18.65;14.00;;;26.50;28.40;;;;;;4990440;28;20309;-68
2022/03/22 11:47:07;;;;;;;18.75;14.43;;;25.40;29.50;;;;;;4991450;28;20172;-67
2022/03/22 11:50:13;;;;;;;17.52;13.82;;;25.50;29.80;;;;;;5005057;28;20498;-69
2022/03/22 11:52:41;;;;;;;17.70;14.40;;;25.30;30.10;;;;;;4931204;29;20185;-67
2022/03/22 11:55:09;;;;;;;19.98;15.60;;;23.80;31.00;;;;;;4996687;28;20222;-68
2022/03/22 11:57:48;;;;;;;19.77;14.10;;;23.90;32.40;;;;;;5008828;28;20226;-68
2022/03/22 12:00:17;;;;;;;20.25;13.50;;;24.00;31.70;;;;;;5010086;28;20174;-67
2022/03/22 12:02:47;;;;;;;18.88;12.95;;;23.80;32.70;;;;;;5010263;28;20672;-67
2022/03/22 12:05:15;;;;;;;21.08;13.50;;;24.00;31.90;;;;;;5010306;28;20175;-68
2022/03/22 12:07:41;;;;;;;16.17;13.75;;;23.40;32.70;;;;;;5008981;28;20183;-66
2022/03/22 12:10:12;;;;;;;20.50;13.70;;;23.00;33.40;;;;;;5009345;28;20265;-67
2022/03/22 12:12:39;;;;;;;12.30;10.10;;;22.10;34.40;;;;;;5008936;28;20178;-67
2022/03/22 12:15:08;;;;;;;15.43;11.18;;;21.10;35.10;;;;;;4993416;28;20248;-67
2022/03/22 12:17:36;;;;;;;13.20;9.52;;;21.10;35.80;;;;;;5046504;28;20216;-68
2022/03/22 12:20:13;;;;;;;13.60;10.20;;;20.80;36.00;;;;;;5063845;28;20347;-68
2022/03/22 12:22:49;;;;;;;15.50;10.57;;;21.20;35.80;;;;;;5069126;28;20187;-66
2022/03/22 12:25:22;;;;;;;16.88;10.43;;;21.00;35.70;;;;;;5067416;28;20172;-67
2022/03/22 12:28:06;;;;;;;13.90;10.60;;;21.20;35.80;;;;;;5076072;28;20263;-67
2022/03/22 12:30:37;;;;;;;11.07;8.52;;;21.40;35.90;;;;;;5080989;28;20171;-69
2022/03/22 12:33:09;;;;;;;14.27;10.77;;;20.90;36.00;;;;;;5078061;28;20497;-70
2022/03/22 12:35:35;;;;;;;12.98;10.07;;;20.70;36.80;;;;;;5069458;28;20179;-66
2022/03/22 12:38:02;;;;;;;15.18;11.05;;;20.50;37.00;;;;;;5087460;28;20197;-67
2022/03/22 12:40:28;;;;;;;14.95;10.15;;;20.60;37.00;;;;;;5076669;28;20666;-66
2022/03/22 12:42:55;;;;;;;11.70;9.90;;;20.50;37.00;;;;;;5064623;28;20189;-65
2022/03/22 12:45:23;;;;;;;12.88;9.75;;;20.50;37.30;;;;;;5080022;28;20187;-65
2022/03/22 12:47:49;;;;;;;12.38;10.40;;;20.20;37.50;;;;;;5074491;28;20172;-66
2022/03/22 12:50:18;;;;;;;13.77;10.45;;;20.40;38.00;;;;;;5069650;28;20187;-66
2022/03/22 12:52:44;;;;;;;16.52;9.45;;;20.10;37.90;;;;;;5058367;28;20227;-66
2022/03/22 12:55:11;;;;;;;15.43;9.95;;;20.40;37.70;;;;;;5074986;28;20687;-67
2022/03/22 12:57:40;;;;;;;17.85;13.13;;;20.70;37.60;;;;;;5074627;28;20295;-67
2022/03/22 13:00:07;;;;;;;14.93;11.02;;;20.60;37.60;;;;;;5052661;28;20208;-65
2022/03/22 13:02:37;;;;;;;16.85;10.98;;;20.50;37.50;;;;;;5073452;28;20185;-67
2022/03/22 13:05:02;;;;;;;17.17;11.20;;;20.40;38.00;;;;;;5070007;28;20248;-66
2022/03/22 13:07:28;;;;;;;16.50;11.55;;;20.50;38.70;;;;;;5085953;28;20263;-67
2022/03/22 13:12:40;;;;;;;16.35;11.20;;;20.20;38.20;;;;;;5080899;28;20183;-67